sensor_id;sensor_type;location;lat;lon;timestamp;temperature;humidity
71942;DHT22;59997;53.300;-6.260;2022-11-24T00:01:32;7.20;81.66
71942;DHT22;59997;53.300;-6.260;2022-11-24T00:04:03;7.23;81.58
71942;DHT22;59997;53.300;-6.260;2022-11-24T00:06:30;7.26;81.41
71942;DHT22;59997;53.300;-6.260;2022-11-24T00:08:56;7.30;81.04
71942;DHT22;59997;53.300;-6.260;2022-11-24T00:11:24;7.30;80.95
71942;DHT22;59997;53.300;-6.260;2022-11-24T00:13:50;7.40;80.55
71942;DHT22;59997;53.300;-6.260;2022-11-24T00:18:47;7.31;81.08
71942;DHT22;59997;53.300;-6.260;2022-11-24T00:21:14;7.17;81.42
71942;DHT22;59997;53.300;-6.260;2022-11-24T00:23:40;7.28;81.23
71942;DHT22;59997;53.300;-6.260;2022-11-24T00:26:08;7.34;81.07
71942;DHT22;59997;53.300;-6.260;2022-11-24T00:28:35;7.44;80.90
71942;DHT22;59997;53.300;-6.260;2022-11-24T00:31:03;7.44;80.33
71942;DHT22;59997;53.300;-6.260;2022-11-24T00:33:29;7.50;79.99
71942;DHT22;59997;53.300;-6.260;2022-11-24T00:35:59;7.46;80.13
71942;DHT22;59997;53.300;-6.260;2022-11-24T00:38:25;7.37;80.08
71942;DHT22;59997;53.300;-6.260;2022-11-24T00:40:51;7.38;79.92
71942;DHT22;59997;53.300;-6.260;2022-11-24T00:43:18;7.40;79.48
71942;DHT22;59997;53.300;-6.260;2022-11-24T00:45:44;7.44;79.50
71942;DHT22;59997;53.300;-6.260;2022-11-24T00:48:09;7.31;79.90
71942;DHT22;59997;53.300;-6.260;2022-11-24T00:50:35;7.30;79.95
71942;DHT22;59997;53.300;-6.260;2022-11-24T00:53:00;7.44;79.36
71942;DHT22;59997;53.300;-6.260;2022-11-24T00:55:26;7.48;79.28
71942;DHT22;59997;53.300;-6.260;2022-11-24T00:57:51;7.43;79.43
71942;DHT22;59997;53.300;-6.260;2022-11-24T01:00:17;7.41;79.85
71942;DHT22;59997;53.300;-6.260;2022-11-24T01:02:43;7.38;79.86
71942;DHT22;59997;53.300;-6.260;2022-11-24T01:05:09;7.31;80.36
71942;DHT22;59997;53.300;-6.260;2022-11-24T01:07:34;7.28;80.15
71942;DHT22;59997;53.300;-6.260;2022-11-24T01:10:00;7.41;79.47
71942;DHT22;59997;53.300;-6.260;2022-11-24T01:12:26;7.43;79.07
71942;DHT22;59997;53.300;-6.260;2022-11-24T01:14:51;7.40;79.24
71942;DHT22;59997;53.300;-6.260;2022-11-24T01:17:17;7.48;78.59
71942;DHT22;59997;53.300;-6.260;2022-11-24T01:19:42;7.47;78.37
71942;DHT22;59997;53.300;-6.260;2022-11-24T01:22:07;7.48;78.22
71942;DHT22;59997;53.300;-6.260;2022-11-24T01:24:33;7.41;78.22
71942;DHT22;59997;53.300;-6.260;2022-11-24T01:26:58;7.54;77.38
71942;DHT22;59997;53.300;-6.260;2022-11-24T01:29:24;7.44;77.80
71942;DHT22;59997;53.300;-6.260;2022-11-24T01:31:50;7.52;77.05
71942;DHT22;59997;53.300;-6.260;2022-11-24T01:34:16;7.59;76.76
71942;DHT22;59997;53.300;-6.260;2022-11-24T01:36:41;7.46;77.23
71942;DHT22;59997;53.300;-6.260;2022-11-24T01:39:07;7.57;76.73
71942;DHT22;59997;53.300;-6.260;2022-11-24T01:41:33;7.64;76.47
71942;DHT22;59997;53.300;-6.260;2022-11-24T01:43:58;7.48;76.94
71942;DHT22;59997;53.300;-6.260;2022-11-24T01:46:40;7.40;77.11
71942;DHT22;59997;53.300;-6.260;2022-11-24T01:54:18;7.43;77.07
71942;DHT22;59997;53.300;-6.260;2022-11-24T01:56:47;7.30;77.82
71942;DHT22;59997;53.300;-6.260;2022-11-24T01:59:14;7.23;78.27
71942;DHT22;59997;53.300;-6.260;2022-11-24T02:01:41;7.22;78.31
71942;DHT22;59997;53.300;-6.260;2022-11-24T02:04:10;7.23;77.94
71942;DHT22;59997;53.300;-6.260;2022-11-24T02:06:38;7.26;77.87
71942;DHT22;59997;53.300;-6.260;2022-11-24T02:09:32;7.12;78.12
71942;DHT22;59997;53.300;-6.260;2022-11-24T02:11:59;7.26;77.20
71942;DHT22;59997;53.300;-6.260;2022-11-24T02:14:26;7.19;77.56
71942;DHT22;59997;53.300;-6.260;2022-11-24T02:16:51;7.33;77.15
71942;DHT22;59997;53.300;-6.260;2022-11-24T02:21:55;7.43;76.88
71942;DHT22;59997;53.300;-6.260;2022-11-24T02:24:25;7.44;76.67
71942;DHT22;59997;53.300;-6.260;2022-11-24T02:26:52;7.40;76.88
71942;DHT22;59997;53.300;-6.260;2022-11-24T02:29:18;7.28;77.04
71942;DHT22;59997;53.300;-6.260;2022-11-24T02:31:51;7.34;76.68
71942;DHT22;59997;53.300;-6.260;2022-11-24T02:34:19;7.46;76.27
71942;DHT22;59997;53.300;-6.260;2022-11-24T02:36:44;7.44;76.17
71942;DHT22;59997;53.300;-6.260;2022-11-24T02:39:11;7.41;76.20
71942;DHT22;59997;53.300;-6.260;2022-11-24T02:41:49;7.41;76.02
71942;DHT22;59997;53.300;-6.260;2022-11-24T02:44:16;7.48;76.06
71942;DHT22;59997;53.300;-6.260;2022-11-24T02:46:43;7.54;76.15
71942;DHT22;59997;53.300;-6.260;2022-11-24T02:49:08;7.54;76.19
71942;DHT22;59997;53.300;-6.260;2022-11-24T02:51:34;7.62;75.81
71942;DHT22;59997;53.300;-6.260;2022-11-24T02:53:59;7.69;75.60
71942;DHT22;59997;53.300;-6.260;2022-11-24T02:56:26;7.64;75.97
71942;DHT22;59997;53.300;-6.260;2022-11-24T02:58:51;7.58;75.87
71942;DHT22;59997;53.300;-6.260;2022-11-24T03:01:16;7.58;75.92
71942;DHT22;59997;53.300;-6.260;2022-11-24T03:03:42;7.67;75.72
71942;DHT22;59997;53.300;-6.260;2022-11-24T03:06:07;7.67;75.93
71942;DHT22;59997;53.300;-6.260;2022-11-24T03:08:33;7.83;75.64
71942;DHT22;59997;53.300;-6.260;2022-11-24T03:11:00;7.85;75.77
71942;DHT22;59997;53.300;-6.260;2022-11-24T03:13:26;7.78;76.46
71942;DHT22;59997;53.300;-6.260;2022-11-24T03:15:51;7.72;76.83
71942;DHT22;59997;53.300;-6.260;2022-11-24T03:18:17;7.79;77.06
71942;DHT22;59997;53.300;-6.260;2022-11-24T03:20:42;7.87;76.68
71942;DHT22;59997;53.300;-6.260;2022-11-24T03:23:08;7.82;77.03
71942;DHT22;59997;53.300;-6.260;2022-11-24T03:25:34;7.89;77.22
71942;DHT22;59997;53.300;-6.260;2022-11-24T03:27:59;8.04;77.00
71942;DHT22;59997;53.300;-6.260;2022-11-24T03:30:24;7.94;77.38
71942;DHT22;59997;53.300;-6.260;2022-11-24T03:32:51;8.06;77.72
71942;DHT22;59997;53.300;-6.260;2022-11-24T03:35:18;7.92;78.64
71942;DHT22;59997;53.300;-6.260;2022-11-24T03:37:43;8.06;78.69
71942;DHT22;59997;53.300;-6.260;2022-11-24T03:40:09;8.20;78.36
71942;DHT22;59997;53.300;-6.260;2022-11-24T03:42:35;8.28;78.18
71942;DHT22;59997;53.300;-6.260;2022-11-24T03:45:00;8.20;78.61
71942;DHT22;59997;53.300;-6.260;2022-11-24T03:47:25;8.11;78.89
71942;DHT22;59997;53.300;-6.260;2022-11-24T03:49:51;8.33;78.55
71942;DHT22;59997;53.300;-6.260;2022-11-24T03:52:16;8.24;79.00
71942;DHT22;59997;53.300;-6.260;2022-11-24T03:54:42;8.35;79.31
71942;DHT22;59997;53.300;-6.260;2022-11-24T03:57:07;8.35;79.28
71942;DHT22;59997;53.300;-6.260;2022-11-24T03:59:33;8.19;79.76
71942;DHT22;59997;53.300;-6.260;2022-11-24T04:01:58;8.41;78.89
71942;DHT22;59997;53.300;-6.260;2022-11-24T04:04:24;8.24;79.36
71942;DHT22;59997;53.300;-6.260;2022-11-24T04:06:49;8.09;79.92
71942;DHT22;59997;53.300;-6.260;2022-11-24T04:09:14;8.00;80.21
71942;DHT22;59997;53.300;-6.260;2022-11-24T04:11:40;7.96;80.41
71942;DHT22;59997;53.300;-6.260;2022-11-24T04:14:24;7.97;80.24
71942;DHT22;59997;53.300;-6.260;2022-11-24T04:16:49;7.93;80.54
71942;DHT22;59997;53.300;-6.260;2022-11-24T04:19:15;7.90;80.60
71942;DHT22;59997;53.300;-6.260;2022-11-24T04:21:40;7.99;80.27
71942;DHT22;59997;53.300;-6.260;2022-11-24T04:24:06;8.00;80.33
71942;DHT22;59997;53.300;-6.260;2022-11-24T04:26:31;7.93;80.34
71942;DHT22;59997;53.300;-6.260;2022-11-24T04:28:57;7.72;81.00
71942;DHT22;59997;53.300;-6.260;2022-11-24T04:31:22;7.55;81.47
71942;DHT22;59997;53.300;-6.260;2022-11-24T04:33:47;7.67;81.19
71942;DHT22;59997;53.300;-6.260;2022-11-24T04:36:13;7.71;81.09
71942;DHT22;59997;53.300;-6.260;2022-11-24T04:38:38;7.75;81.04
71942;DHT22;59997;53.300;-6.260;2022-11-24T04:41:04;7.93;80.96
71942;DHT22;59997;53.300;-6.260;2022-11-24T04:43:30;7.96;81.02
71942;DHT22;59997;53.300;-6.260;2022-11-24T04:45:58;8.26;80.58
71942;DHT22;59997;53.300;-6.260;2022-11-24T04:48:25;8.42;79.99
71942;DHT22;59997;53.300;-6.260;2022-11-24T04:50:50;8.37;79.77
71942;DHT22;59997;53.300;-6.260;2022-11-24T04:53:15;8.41;79.29
71942;DHT22;59997;53.300;-6.260;2022-11-24T04:55:41;8.34;79.29
71942;DHT22;59997;53.300;-6.260;2022-11-24T04:58:10;8.24;79.75
71942;DHT22;59997;53.300;-6.260;2022-11-24T05:00:36;8.09;80.21
71942;DHT22;59997;53.300;-6.260;2022-11-24T05:03:02;8.00;80.25
71942;DHT22;59997;53.300;-6.260;2022-11-24T05:05:28;7.85;80.66
71942;DHT22;59997;53.300;-6.260;2022-11-24T05:07:53;7.55;81.26
71942;DHT22;59997;53.300;-6.260;2022-11-24T05:10:19;7.28;81.84
71942;DHT22;59997;53.300;-6.260;2022-11-24T05:13:00;6.87;82.56
71942;DHT22;59997;53.300;-6.260;2022-11-24T05:15:26;6.58;83.61
71942;DHT22;59997;53.300;-6.260;2022-11-24T05:17:51;6.32;84.09
71942;DHT22;59997;53.300;-6.260;2022-11-24T05:20:17;6.12;85.15
71942;DHT22;59997;53.300;-6.260;2022-11-24T05:22:43;6.06;85.32
71942;DHT22;59997;53.300;-6.260;2022-11-24T05:25:08;6.11;85.99
71942;DHT22;59997;53.300;-6.260;2022-11-24T05:27:34;6.19;86.15
71942;DHT22;59997;53.300;-6.260;2022-11-24T05:29:59;6.33;86.10
71942;DHT22;59997;53.300;-6.260;2022-11-24T05:32:25;6.44;86.02
71942;DHT22;59997;53.300;-6.260;2022-11-24T05:34:50;6.43;85.83
71942;DHT22;59997;53.300;-6.260;2022-11-24T05:37:17;6.53;85.82
71942;DHT22;59997;53.300;-6.260;2022-11-24T05:39:42;6.50;85.82
71942;DHT22;59997;53.300;-6.260;2022-11-24T05:42:08;6.34;86.04
71942;DHT22;59997;53.300;-6.260;2022-11-24T05:44:57;6.34;86.39
71942;DHT22;59997;53.300;-6.260;2022-11-24T05:47:23;6.30;86.91
71942;DHT22;59997;53.300;-6.260;2022-11-24T05:49:49;6.32;86.60
71942;DHT22;59997;53.300;-6.260;2022-11-24T05:52:16;6.25;87.01
71942;DHT22;59997;53.300;-6.260;2022-11-24T05:54:42;6.33;87.22
71942;DHT22;59997;53.300;-6.260;2022-11-24T05:57:07;6.53;87.36
71942;DHT22;59997;53.300;-6.260;2022-11-24T05:59:34;7.09;86.60
71942;DHT22;59997;53.300;-6.260;2022-11-24T06:01:59;7.26;85.79
71942;DHT22;59997;53.300;-6.260;2022-11-24T06:04:24;7.59;85.51
71942;DHT22;59997;53.300;-6.260;2022-11-24T06:06:50;8.20;84.73
71942;DHT22;59997;53.300;-6.260;2022-11-24T06:09:16;8.84;82.62
71942;DHT22;59997;53.300;-6.260;2022-11-24T06:11:41;9.41;81.07
71942;DHT22;59997;53.300;-6.260;2022-11-24T06:14:08;9.65;80.24
71942;DHT22;59997;53.300;-6.260;2022-11-24T06:16:34;9.83;79.67
71942;DHT22;59997;53.300;-6.260;2022-11-24T06:19:00;10.01;79.11
71942;DHT22;59997;53.300;-6.260;2022-11-24T06:21:26;10.08;79.01
71942;DHT22;59997;53.300;-6.260;2022-11-24T06:23:51;10.14;78.94
71942;DHT22;59997;53.300;-6.260;2022-11-24T06:26:16;10.17;79.17
71942;DHT22;59997;53.300;-6.260;2022-11-24T06:28:42;10.12;79.50
71942;DHT22;59997;53.300;-6.260;2022-11-24T06:31:09;10.14;79.47
71942;DHT22;59997;53.300;-6.260;2022-11-24T06:33:36;10.17;79.73
71942;DHT22;59997;53.300;-6.260;2022-11-24T06:36:04;10.24;79.85
71942;DHT22;59997;53.300;-6.260;2022-11-24T06:38:31;10.24;80.39
71942;DHT22;59997;53.300;-6.260;2022-11-24T06:41:04;10.11;81.78
71942;DHT22;59997;53.300;-6.260;2022-11-24T06:43:33;9.90;83.03
71942;DHT22;59997;53.300;-6.260;2022-11-24T06:46:00;9.76;83.76
71942;DHT22;59997;53.300;-6.260;2022-11-24T06:48:26;9.57;84.30
71942;DHT22;59997;53.300;-6.260;2022-11-24T06:50:52;9.49;84.82
71942;DHT22;59997;53.300;-6.260;2022-11-24T06:53:18;9.36;84.91
71942;DHT22;59997;53.300;-6.260;2022-11-24T06:55:44;9.31;85.08
71942;DHT22;59997;53.300;-6.260;2022-11-24T06:58:10;9.35;84.91
71942;DHT22;59997;53.300;-6.260;2022-11-24T07:00:36;9.34;84.69
71942;DHT22;59997;53.300;-6.260;2022-11-24T07:03:02;9.35;84.73
71942;DHT22;59997;53.300;-6.260;2022-11-24T07:05:27;9.43;84.62
71942;DHT22;59997;53.300;-6.260;2022-11-24T07:07:53;9.42;84.78
71942;DHT22;59997;53.300;-6.260;2022-11-24T07:10:19;9.43;84.56
71942;DHT22;59997;53.300;-6.260;2022-11-24T07:12:45;9.49;84.65
71942;DHT22;59997;53.300;-6.260;2022-11-24T07:15:10;9.43;84.80
71942;DHT22;59997;53.300;-6.260;2022-11-24T07:17:36;9.48;84.83
71942;DHT22;59997;53.300;-6.260;2022-11-24T07:20:04;9.67;84.63
71942;DHT22;59997;53.300;-6.260;2022-11-24T07:22:29;9.72;85.01
71942;DHT22;59997;53.300;-6.260;2022-11-24T07:24:55;9.59;85.46
71942;DHT22;59997;53.300;-6.260;2022-11-24T07:27:21;9.55;85.80
71942;DHT22;59997;53.300;-6.260;2022-11-24T07:29:46;9.53;85.92
71942;DHT22;59997;53.300;-6.260;2022-11-24T07:32:11;9.52;86.04
71942;DHT22;59997;53.300;-6.260;2022-11-24T07:34:37;9.63;85.85
71942;DHT22;59997;53.300;-6.260;2022-11-24T07:37:02;9.76;85.79
71942;DHT22;59997;53.300;-6.260;2022-11-24T07:39:28;9.69;86.64
71942;DHT22;59997;53.300;-6.260;2022-11-24T07:41:53;9.63;87.30
71942;DHT22;59997;53.300;-6.260;2022-11-24T07:44:19;9.66;87.12
71942;DHT22;59997;53.300;-6.260;2022-11-24T07:46:44;9.56;87.64
71942;DHT22;59997;53.300;-6.260;2022-11-24T07:49:10;9.59;87.58
71942;DHT22;59997;53.300;-6.260;2022-11-24T07:51:35;9.69;87.35
71942;DHT22;59997;53.300;-6.260;2022-11-24T07:54:01;9.72;87.35
71942;DHT22;59997;53.300;-6.260;2022-11-24T07:56:26;9.74;87.26
71942;DHT22;59997;53.300;-6.260;2022-11-24T07:58:52;9.76;87.33
71942;DHT22;59997;53.300;-6.260;2022-11-24T08:01:17;9.76;87.38
71942;DHT22;59997;53.300;-6.260;2022-11-24T08:03:44;9.83;87.25
71942;DHT22;59997;53.300;-6.260;2022-11-24T08:06:10;9.84;87.17
71942;DHT22;59997;53.300;-6.260;2022-11-24T08:08:36;9.87;86.91
71942;DHT22;59997;53.300;-6.260;2022-11-24T08:11:06;9.93;86.95
71942;DHT22;59997;53.300;-6.260;2022-11-24T08:13:33;9.94;87.09
71942;DHT22;59997;53.300;-6.260;2022-11-24T08:16:02;9.91;87.38
71942;DHT22;59997;53.300;-6.260;2022-11-24T08:18:28;10.01;87.30
71942;DHT22;59997;53.300;-6.260;2022-11-24T08:20:56;10.05;87.31
71942;DHT22;59997;53.300;-6.260;2022-11-24T08:23:22;10.08;87.11
71942;DHT22;59997;53.300;-6.260;2022-11-24T08:25:47;10.07;87.17
71942;DHT22;59997;53.300;-6.260;2022-11-24T08:28:13;10.09;86.95
71942;DHT22;59997;53.300;-6.260;2022-11-24T08:30:38;10.19;86.52
71942;DHT22;59997;53.300;-6.260;2022-11-24T08:33:04;10.26;86.28
71942;DHT22;59997;53.300;-6.260;2022-11-24T08:35:29;10.25;86.58
71942;DHT22;59997;53.300;-6.260;2022-11-24T08:37:55;10.19;86.67
71942;DHT22;59997;53.300;-6.260;2022-11-24T08:40:20;10.25;86.63
71942;DHT22;59997;53.300;-6.260;2022-11-24T08:42:46;10.24;87.15
71942;DHT22;59997;53.300;-6.260;2022-11-24T08:47:56;9.91;86.25
71942;DHT22;59997;53.300;-6.260;2022-11-24T08:50:22;9.70;86.72
71942;DHT22;59997;53.300;-6.260;2022-11-24T08:52:50;9.60;86.96
71942;DHT22;59997;53.300;-6.260;2022-11-24T08:55:16;9.49;87.69
71942;DHT22;59997;53.300;-6.260;2022-11-24T08:57:41;9.42;88.36
71942;DHT22;59997;53.300;-6.260;2022-11-24T09:00:07;9.27;88.76
71942;DHT22;59997;53.300;-6.260;2022-11-24T09:02:33;9.01;88.78
71942;DHT22;59997;53.300;-6.260;2022-11-24T09:04:58;8.86;88.45
71942;DHT22;59997;53.300;-6.260;2022-11-24T09:07:24;8.81;88.93
71942;DHT22;59997;53.300;-6.260;2022-11-24T09:09:49;8.77;89.21
71942;DHT22;59997;53.300;-6.260;2022-11-24T09:12:15;8.79;89.33
71942;DHT22;59997;53.300;-6.260;2022-11-24T09:14:40;8.73;88.76
71942;DHT22;59997;53.300;-6.260;2022-11-24T09:17:05;8.65;88.90
71942;DHT22;59997;53.300;-6.260;2022-11-24T09:19:31;8.54;88.65
71942;DHT22;59997;53.300;-6.260;2022-11-24T09:21:56;8.49;87.78
71942;DHT22;59997;53.300;-6.260;2022-11-24T09:24:22;8.40;88.16
71942;DHT22;59997;53.300;-6.260;2022-11-24T09:26:47;8.31;87.86
71942;DHT22;59997;53.300;-6.260;2022-11-24T09:29:13;8.20;87.86
71942;DHT22;59997;53.300;-6.260;2022-11-24T09:31:38;8.00;87.84
71942;DHT22;59997;53.300;-6.260;2022-11-24T09:34:06;7.97;87.58
71942;DHT22;59997;53.300;-6.260;2022-11-24T09:36:32;7.99;87.51
71942;DHT22;59997;53.300;-6.260;2022-11-24T09:38:58;7.94;87.84
71942;DHT22;59997;53.300;-6.260;2022-11-24T09:46:42;8.10;87.60
71942;DHT22;59997;53.300;-6.260;2022-11-24T09:49:14;8.10;88.13
71942;DHT22;59997;53.300;-6.260;2022-11-24T09:51:43;8.26;87.78
71942;DHT22;59997;53.300;-6.260;2022-11-24T09:54:17;8.42;87.57
71942;DHT22;59997;53.300;-6.260;2022-11-24T09:56:44;8.56;87.54
71942;DHT22;59997;53.300;-6.260;2022-11-24T09:59:20;8.65;87.65
71942;DHT22;59997;53.300;-6.260;2022-11-24T10:01:47;8.76;87.06
71942;DHT22;59997;53.300;-6.260;2022-11-24T10:25:59;8.99;84.87
71942;DHT22;59997;53.300;-6.260;2022-11-24T10:28:37;9.04;84.37
71942;DHT22;59997;53.300;-6.260;2022-11-24T10:33:48;9.13;84.35
71942;DHT22;59997;53.300;-6.260;2022-11-24T10:36:36;9.18;84.14
71942;DHT22;59997;53.300;-6.260;2022-11-24T10:39:22;9.34;83.44
71942;DHT22;59997;53.300;-6.260;2022-11-24T10:42:26;10.83;81.32
71942;DHT22;59997;53.300;-6.260;2022-11-24T10:45:09;10.14;80.38
71942;DHT22;59997;53.300;-6.260;2022-11-24T10:47:34;9.72;81.67
71942;DHT22;59997;53.300;-6.260;2022-11-24T10:52:40;9.49;82.41
71942;DHT22;59997;53.300;-6.260;2022-11-24T10:55:08;10.36;80.27
71942;DHT22;59997;53.300;-6.260;2022-11-24T10:57:38;11.08;77.27
71942;DHT22;59997;53.300;-6.260;2022-11-24T11:02:50;11.64;76.01
71942;DHT22;59997;53.300;-6.260;2022-11-24T11:05:40;11.56;74.12
71942;DHT22;59997;53.300;-6.260;2022-11-24T11:10:39;11.94;74.10
71942;DHT22;59997;53.300;-6.260;2022-11-24T11:15:49;11.89;72.06
71942;DHT22;59997;53.300;-6.260;2022-11-24T11:18:16;11.97;71.44
71942;DHT22;59997;53.300;-6.260;2022-11-24T11:20:55;11.99;70.97
71942;DHT22;59997;53.300;-6.260;2022-11-24T11:23:31;12.15;70.83
71942;DHT22;59997;53.300;-6.260;2022-11-24T11:29:04;12.01;71.93
71942;DHT22;59997;53.300;-6.260;2022-11-24T11:31:38;11.98;71.06
71942;DHT22;59997;53.300;-6.260;2022-11-24T11:36:53;11.99;70.14
71942;DHT22;59997;53.300;-6.260;2022-11-24T11:39:38;12.23;69.98
71942;DHT22;59997;53.300;-6.260;2022-11-24T11:42:24;12.16;69.54
71942;DHT22;59997;53.300;-6.260;2022-11-24T11:44:52;11.99;69.58
71942;DHT22;59997;53.300;-6.260;2022-11-24T11:49:51;11.95;69.94
71942;DHT22;59997;53.300;-6.260;2022-11-24T11:58:00;12.08;69.24
71942;DHT22;59997;53.300;-6.260;2022-11-24T12:00:30;11.95;69.33
71942;DHT22;59997;53.300;-6.260;2022-11-24T12:17:52;12.15;69.16
71942;DHT22;59997;53.300;-6.260;2022-11-24T12:25:43;12.44;67.94
71942;DHT22;59997;53.300;-6.260;2022-11-24T12:31:04;12.19;68.02
71942;DHT22;59997;53.300;-6.260;2022-11-24T12:39:06;12.09;68.73
71942;DHT22;59997;53.300;-6.260;2022-11-24T12:42:08;11.94;68.24
71942;DHT22;59997;53.300;-6.260;2022-11-24T12:52:38;11.36;70.46
71942;DHT22;59997;53.300;-6.260;2022-11-24T12:55:12;11.29;70.54
71942;DHT22;59997;53.300;-6.260;2022-11-24T12:57:44;11.29;70.91
71942;DHT22;59997;53.300;-6.260;2022-11-24T13:00:26;11.18;69.46
71942;DHT22;59997;53.300;-6.260;2022-11-24T13:03:17;11.21;70.24
71942;DHT22;59997;53.300;-6.260;2022-11-24T13:05:56;11.18;70.76
71942;DHT22;59997;53.300;-6.260;2022-11-24T13:08:25;11.16;70.61
71942;DHT22;59997;53.300;-6.260;2022-11-24T13:10:51;11.14;71.00
71942;DHT22;59997;53.300;-6.260;2022-11-24T13:13:16;11.11;71.72
71942;DHT22;59997;53.300;-6.260;2022-11-24T13:18:57;11.12;71.64
71942;DHT22;59997;53.300;-6.260;2022-11-24T13:47:59;10.35;70.63
71942;DHT22;59997;53.300;-6.260;2022-11-24T13:53:54;10.11;71.71
71942;DHT22;59997;53.300;-6.260;2022-11-24T13:56:23;10.04;72.56
71942;DHT22;59997;53.300;-6.260;2022-11-24T13:59:00;10.01;72.52
71942;DHT22;59997;53.300;-6.260;2022-11-24T14:01:31;9.98;72.59
71942;DHT22;59997;53.300;-6.260;2022-11-24T14:07:16;10.32;71.17
71942;DHT22;59997;53.300;-6.260;2022-11-24T14:09:48;10.66;67.33
71942;DHT22;59997;53.300;-6.260;2022-11-24T14:12:19;10.87;67.50
71942;DHT22;59997;53.300;-6.260;2022-11-24T14:14:49;10.98;65.48
71942;DHT22;59997;53.300;-6.260;2022-11-24T14:17:26;11.05;66.35
71942;DHT22;59997;53.300;-6.260;2022-11-24T14:19:56;11.02;66.54
71942;DHT22;59997;53.300;-6.260;2022-11-24T14:24:52;10.78;66.58
71942;DHT22;59997;53.300;-6.260;2022-11-24T14:27:25;10.63;65.61
71942;DHT22;59997;53.300;-6.260;2022-11-24T14:29:53;10.43;65.78
71942;DHT22;59997;53.300;-6.260;2022-11-24T14:32:19;10.28;67.38
71942;DHT22;59997;53.300;-6.260;2022-11-24T14:34:46;10.11;66.29
71942;DHT22;59997;53.300;-6.260;2022-11-24T14:37:11;10.02;67.02
71942;DHT22;59997;53.300;-6.260;2022-11-24T14:39:40;9.86;67.62
71942;DHT22;59997;53.300;-6.260;2022-11-24T14:45:00;9.72;68.30
71942;DHT22;59997;53.300;-6.260;2022-11-24T14:47:29;9.70;67.78
71942;DHT22;59997;53.300;-6.260;2022-11-24T14:49:57;9.67;68.48
71942;DHT22;59997;53.300;-6.260;2022-11-24T14:52:24;9.56;69.88
71942;DHT22;59997;53.300;-6.260;2022-11-24T14:57:33;9.62;69.11
71942;DHT22;59997;53.300;-6.260;2022-11-24T15:02:49;9.53;70.11
71942;DHT22;59997;53.300;-6.260;2022-11-24T15:05:17;9.46;70.35
71942;DHT22;59997;53.300;-6.260;2022-11-24T15:07:48;9.46;71.06
71942;DHT22;59997;53.300;-6.260;2022-11-24T15:10:26;9.49;70.88
71942;DHT22;59997;53.300;-6.260;2022-11-24T15:12:58;9.53;71.39
71942;DHT22;59997;53.300;-6.260;2022-11-24T15:15:35;9.67;70.23
71942;DHT22;59997;53.300;-6.260;2022-11-24T15:18:03;9.74;70.03
71942;DHT22;59997;53.300;-6.260;2022-11-24T15:20:37;9.84;70.25
71942;DHT22;59997;53.300;-6.260;2022-11-24T15:23:27;9.74;70.37
71942;DHT22;59997;53.300;-6.260;2022-11-24T15:25:54;9.73;70.39
71942;DHT22;59997;53.300;-6.260;2022-11-24T15:28:21;9.52;72.02
71942;DHT22;59997;53.300;-6.260;2022-11-24T15:31:00;8.45;77.87
71942;DHT22;59997;53.300;-6.260;2022-11-24T15:33:26;7.15;81.42
71942;DHT22;59997;53.300;-6.260;2022-11-24T15:35:52;6.46;83.33
71942;DHT22;59997;53.300;-6.260;2022-11-24T15:38:17;6.28;84.26
71942;DHT22;59997;53.300;-6.260;2022-11-24T15:40:45;6.09;83.82
71942;DHT22;59997;53.300;-6.260;2022-11-24T15:45:45;5.70;84.03
71942;DHT22;59997;53.300;-6.260;2022-11-24T15:48:11;5.56;84.39
71942;DHT22;59997;53.300;-6.260;2022-11-24T15:50:37;5.40;84.61
71942;DHT22;59997;53.300;-6.260;2022-11-24T15:53:03;5.57;83.59
71942;DHT22;59997;53.300;-6.260;2022-11-24T15:55:29;5.60;83.91
71942;DHT22;59997;53.300;-6.260;2022-11-24T15:57:54;5.83;82.52
71942;DHT22;59997;53.300;-6.260;2022-11-24T16:00:21;5.83;82.65
71942;DHT22;59997;53.300;-6.260;2022-11-24T16:02:48;5.95;81.64
71942;DHT22;59997;53.300;-6.260;2022-11-24T16:05:15;6.02;81.49
71942;DHT22;59997;53.300;-6.260;2022-11-24T16:07:41;5.98;81.62
71942;DHT22;59997;53.300;-6.260;2022-11-24T16:10:28;6.02;81.60
71942;DHT22;59997;53.300;-6.260;2022-11-24T16:12:54;6.06;81.52
71942;DHT22;59997;53.300;-6.260;2022-11-24T16:15:19;6.19;80.58
71942;DHT22;59997;53.300;-6.260;2022-11-24T16:17:45;6.26;80.96
71942;DHT22;59997;53.300;-6.260;2022-11-24T16:20:11;6.26;81.28
71942;DHT22;59997;53.300;-6.260;2022-11-24T16:22:37;6.37;80.95
71942;DHT22;59997;53.300;-6.260;2022-11-24T16:25:03;6.63;80.09
71942;DHT22;59997;53.300;-6.260;2022-11-24T16:27:29;6.68;80.23
71942;DHT22;59997;53.300;-6.260;2022-11-24T16:29:55;7.15;78.32
71942;DHT22;59997;53.300;-6.260;2022-11-24T16:32:21;7.27;77.76
71942;DHT22;59997;53.300;-6.260;2022-11-24T16:34:46;7.20;77.85
71942;DHT22;59997;53.300;-6.260;2022-11-24T16:37:12;7.19;77.62
71942;DHT22;59997;53.300;-6.260;2022-11-24T16:39:37;7.17;77.27
71942;DHT22;59997;53.300;-6.260;2022-11-24T16:42:03;7.41;76.40
71942;DHT22;59997;53.300;-6.260;2022-11-24T16:44:28;7.27;77.05
71942;DHT22;59997;53.300;-6.260;2022-11-24T16:46:54;7.28;76.78
71942;DHT22;59997;53.300;-6.260;2022-11-24T16:49:19;7.24;76.92
71942;DHT22;59997;53.300;-6.260;2022-11-24T16:51:45;7.10;77.84
71942;DHT22;59997;53.300;-6.260;2022-11-24T16:54:10;7.13;77.51
71942;DHT22;59997;53.300;-6.260;2022-11-24T16:56:36;7.06;78.37
71942;DHT22;59997;53.300;-6.260;2022-11-24T16:59:01;7.06;78.42
71942;DHT22;59997;53.300;-6.260;2022-11-24T17:01:27;7.06;78.84
71942;DHT22;59997;53.300;-6.260;2022-11-24T17:03:54;7.12;78.74
71942;DHT22;59997;53.300;-6.260;2022-11-24T17:06:20;7.03;79.10
71942;DHT22;59997;53.300;-6.260;2022-11-24T17:08:45;6.84;80.19
71942;DHT22;59997;53.300;-6.260;2022-11-24T17:11:20;6.89;80.54
71942;DHT22;59997;53.300;-6.260;2022-11-24T17:13:47;7.00;80.31
71942;DHT22;59997;53.300;-6.260;2022-11-24T17:16:18;7.19;80.17
71942;DHT22;59997;53.300;-6.260;2022-11-24T17:18:44;7.27;80.77
71942;DHT22;59997;53.300;-6.260;2022-11-24T17:21:24;7.31;80.76
71942;DHT22;59997;53.300;-6.260;2022-11-24T17:24:00;7.23;81.49
71942;DHT22;59997;53.300;-6.260;2022-11-24T17:26:29;7.07;82.22
71942;DHT22;59997;53.300;-6.260;2022-11-24T17:28:55;6.87;82.71
71942;DHT22;59997;53.300;-6.260;2022-11-24T17:33:48;6.92;82.55
71942;DHT22;59997;53.300;-6.260;2022-11-24T17:36:13;6.92;82.48
71942;DHT22;59997;53.300;-6.260;2022-11-24T17:38:40;6.89;82.81
71942;DHT22;59997;53.300;-6.260;2022-11-24T17:41:06;6.84;83.09
71942;DHT22;59997;53.300;-6.260;2022-11-24T17:43:31;6.87;82.82
71942;DHT22;59997;53.300;-6.260;2022-11-24T17:45:58;6.99;82.55
71942;DHT22;59997;53.300;-6.260;2022-11-24T17:48:25;7.09;82.34
71942;DHT22;59997;53.300;-6.260;2022-11-24T17:51:02;7.23;81.76
71942;DHT22;59997;53.300;-6.260;2022-11-24T17:53:28;7.40;81.06
71942;DHT22;59997;53.300;-6.260;2022-11-24T17:55:53;7.46;81.39
71942;DHT22;59997;53.300;-6.260;2022-11-24T17:58:19;7.54;81.46
71942;DHT22;59997;53.300;-6.260;2022-11-24T18:00:44;7.75;80.78
71942;DHT22;59997;53.300;-6.260;2022-11-24T18:03:10;7.83;80.54
71942;DHT22;59997;53.300;-6.260;2022-11-24T18:05:36;7.89;80.56
71942;DHT22;59997;53.300;-6.260;2022-11-24T18:08:02;7.89;80.45